sensor_id;sensor_type;location;lat;lon;timestamp;temperature;humidity
1626;DHT22;806;48.770;9.156;2022-08-19T00:00:39;22.90;99.90
1626;DHT22;806;48.770;9.156;2022-08-19T00:03:06;22.90;99.90
1626;DHT22;806;48.770;9.156;2022-08-19T00:05:34;22.80;99.90
1626;DHT22;806;48.770;9.156;2022-08-19T00:08:01;22.80;99.90
1626;DHT22;806;48.770;9.156;2022-08-19T00:10:29;22.70;1.00
1626;DHT22;806;48.770;9.156;2022-08-19T00:12:56;22.80;1.00
1626;DHT22;806;48.770;9.156;2022-08-19T00:15:23;22.80;1.00
1626;DHT22;806;48.770;9.156;2022-08-19T00:17:50;22.60;1.00
1626;DHT22;806;48.770;9.156;2022-08-19T00:20:19;22.40;1.00
1626;DHT22;806;48.770;9.156;2022-08-19T00:22:47;22.30;1.60
1626;DHT22;806;48.770;9.156;2022-08-19T00:25:15;22.40;1.00
1626;DHT22;806;48.770;9.156;2022-08-19T00:27:43;22.50;1.00
1626;DHT22;806;48.770;9.156;2022-08-19T00:30:11;22.60;1.00
1626;DHT22;806;48.770;9.156;2022-08-19T00:32:38;22.70;1.00
1626;DHT22;806;48.770;9.156;2022-08-19T00:35:07;22.70;1.00
1626;DHT22;806;48.770;9.156;2022-08-19T00:37:35;22.70;1.00
1626;DHT22;806;48.770;9.156;2022-08-19T00:40:04;22.60;1.00
1626;DHT22;806;48.770;9.156;2022-08-19T00:42:31;22.60;1.00
1626;DHT22;806;48.770;9.156;2022-08-19T00:44:59;22.50;1.00
1626;DHT22;806;48.770;9.156;2022-08-19T00:47:27;22.40;1.00
1626;DHT22;806;48.770;9.156;2022-08-19T00:49:56;22.30;1.00
1626;DHT22;806;48.770;9.156;2022-08-19T00:52:26;22.40;1.00
1626;DHT22;806;48.770;9.156;2022-08-19T00:54:56;22.50;1.00
1626;DHT22;806;48.770;9.156;2022-08-19T00:57:28;22.50;1.00
1626;DHT22;806;48.770;9.156;2022-08-19T00:59:56;22.50;1.00
1626;DHT22;806;48.770;9.156;2022-08-19T01:02:27;22.50;1.00
1626;DHT22;806;48.770;9.156;2022-08-19T01:04:54;22.50;1.00
1626;DHT22;806;48.770;9.156;2022-08-19T01:07:21;22.50;1.00
1626;DHT22;806;48.770;9.156;2022-08-19T01:09:48;22.50;1.00
1626;DHT22;806;48.770;9.156;2022-08-19T01:12:16;22.50;1.00
1626;DHT22;806;48.770;9.156;2022-08-19T01:14:44;22.60;1.00
1626;DHT22;806;48.770;9.156;2022-08-19T01:17:12;22.60;1.00
1626;DHT22;806;48.770;9.156;2022-08-19T01:19:41;22.70;1.00
1626;DHT22;806;48.770;9.156;2022-08-19T01:22:12;22.70;1.00
1626;DHT22;806;48.770;9.156;2022-08-19T01:24:42;22.70;1.00
1626;DHT22;806;48.770;9.156;2022-08-19T01:27:10;22.70;1.00
1626;DHT22;806;48.770;9.156;2022-08-19T01:29:38;22.70;1.00
1626;DHT22;806;48.770;9.156;2022-08-19T01:32:06;22.70;1.00
1626;DHT22;806;48.770;9.156;2022-08-19T01:34:34;22.60;1.00
1626;DHT22;806;48.770;9.156;2022-08-19T01:37:06;22.60;1.00
1626;DHT22;806;48.770;9.156;2022-08-19T01:39:37;22.70;1.00
1626;DHT22;806;48.770;9.156;2022-08-19T01:42:07;22.60;1.00
1626;DHT22;806;48.770;9.156;2022-08-19T01:44:36;22.60;1.00
1626;DHT22;806;48.770;9.156;2022-08-19T01:47:06;22.50;1.00
1626;DHT22;806;48.770;9.156;2022-08-19T01:49:36;22.50;1.00
1626;DHT22;806;48.770;9.156;2022-08-19T01:52:04;22.50;1.00
1626;DHT22;806;48.770;9.156;2022-08-19T01:54:32;22.50;1.00
1626;DHT22;806;48.770;9.156;2022-08-19T01:57:02;22.50;1.00
1626;DHT22;806;48.770;9.156;2022-08-19T01:59:32;22.50;1.00
1626;DHT22;806;48.770;9.156;2022-08-19T02:02:03;22.50;1.00
1626;DHT22;806;48.770;9.156;2022-08-19T02:04:33;22.50;1.00
1626;DHT22;806;48.770;9.156;2022-08-19T02:07:00;22.40;1.00
1626;DHT22;806;48.770;9.156;2022-08-19T02:09:27;22.30;99.90
1626;DHT22;806;48.770;9.156;2022-08-19T02:11:54;22.30;99.90
1626;DHT22;806;48.770;9.156;2022-08-19T02:14:21;22.30;99.90
1626;DHT22;806;48.770;9.156;2022-08-19T02:16:49;22.30;99.90
1626;DHT22;806;48.770;9.156;2022-08-19T02:19:16;22.40;99.90
1626;DHT22;806;48.770;9.156;2022-08-19T02:21:44;22.40;99.90
1626;DHT22;806;48.770;9.156;2022-08-19T02:24:11;22.40;99.90
1626;DHT22;806;48.770;9.156;2022-08-19T02:26:38;22.30;99.90
1626;DHT22;806;48.770;9.156;2022-08-19T02:29:05;22.30;99.90
1626;DHT22;806;48.770;9.156;2022-08-19T02:31:32;22.30;99.90
1626;DHT22;806;48.770;9.156;2022-08-19T02:34:01;22.40;99.90
1626;DHT22;806;48.770;9.156;2022-08-19T02:36:28;22.40;99.90
1626;DHT22;806;48.770;9.156;2022-08-19T02:38:55;22.50;99.90
1626;DHT22;806;48.770;9.156;2022-08-19T02:41:24;22.30;99.90
1626;DHT22;806;48.770;9.156;2022-08-19T02:43:51;22.30;99.90
1626;DHT22;806;48.770;9.156;2022-08-19T02:46:20;22.30;1.00
1626;DHT22;806;48.770;9.156;2022-08-19T02:48:51;22.20;1.00
1626;DHT22;806;48.770;9.156;2022-08-19T02:51:22;22.10;1.00
1626;DHT22;806;48.770;9.156;2022-08-19T02:53:49;22.00;99.90
1626;DHT22;806;48.770;9.156;2022-08-19T02:56:16;21.80;1.00
1626;DHT22;806;48.770;9.156;2022-08-19T02:58:44;21.70;99.90
1626;DHT22;806;48.770;9.156;2022-08-19T03:01:18;21.70;1.00
1626;DHT22;806;48.770;9.156;2022-08-19T03:03:46;21.70;1.00
1626;DHT22;806;48.770;9.156;2022-08-19T03:06:14;21.60;99.90
1626;DHT22;806;48.770;9.156;2022-08-19T03:08:44;21.70;1.00
1626;DHT22;806;48.770;9.156;2022-08-19T03:11:17;21.70;1.00
1626;DHT22;806;48.770;9.156;2022-08-19T03:13:44;21.70;1.00
1626;DHT22;806;48.770;9.156;2022-08-19T03:16:12;21.50;1.00
1626;DHT22;806;48.770;9.156;2022-08-19T03:18:39;21.40;1.00
1626;DHT22;806;48.770;9.156;2022-08-19T03:21:06;21.30;1.00
1626;DHT22;806;48.770;9.156;2022-08-19T03:23:33;21.50;1.00
1626;DHT22;806;48.770;9.156;2022-08-19T03:26:04;21.60;1.00
1626;DHT22;806;48.770;9.156;2022-08-19T03:28:32;21.70;1.00
1626;DHT22;806;48.770;9.156;2022-08-19T03:31:02;21.50;1.00
1626;DHT22;806;48.770;9.156;2022-08-19T03:33:31;21.60;99.90
1626;DHT22;806;48.770;9.156;2022-08-19T03:36:05;21.60;99.90
1626;DHT22;806;48.770;9.156;2022-08-19T03:38:32;21.60;19.80
1626;DHT22;806;48.770;9.156;2022-08-19T03:41:04;21.70;1.00
1626;DHT22;806;48.770;9.156;2022-08-19T03:43:32;21.70;1.00
1626;DHT22;806;48.770;9.156;2022-08-19T03:46:02;21.70;99.90
1626;DHT22;806;48.770;9.156;2022-08-19T03:48:29;21.40;99.90
1626;DHT22;806;48.770;9.156;2022-08-19T03:50:57;21.40;1.00
1626;DHT22;806;48.770;9.156;2022-08-19T03:53:26;21.30;1.00
1626;DHT22;806;48.770;9.156;2022-08-19T03:55:54;21.10;99.90
1626;DHT22;806;48.770;9.156;2022-08-19T03:58:23;21.10;99.90
1626;DHT22;806;48.770;9.156;2022-08-19T04:00:50;21.20;99.90
1626;DHT22;806;48.770;9.156;2022-08-19T04:03:17;21.30;1.00
1626;DHT22;806;48.770;9.156;2022-08-19T04:05:45;21.40;1.00
1626;DHT22;806;48.770;9.156;2022-08-19T04:08:13;21.40;1.00
1626;DHT22;806;48.770;9.156;2022-08-19T04:10:44;21.30;1.00
1626;DHT22;806;48.770;9.156;2022-08-19T04:13:13;21.40;1.00
1626;DHT22;806;48.770;9.156;2022-08-19T04:15:42;21.50;99.90
1626;DHT22;806;48.770;9.156;2022-08-19T04:18:12;21.60;1.00
1626;DHT22;806;48.770;9.156;2022-08-19T04:20:44;21.40;99.90
1626;DHT22;806;48.770;9.156;2022-08-19T04:23:12;21.40;99.90
1626;DHT22;806;48.770;9.156;2022-08-19T04:25:42;21.30;1.00
1626;DHT22;806;48.770;9.156;2022-08-19T04:28:11;21.20;1.00
1626;DHT22;806;48.770;9.156;2022-08-19T04:30:41;21.30;1.00
1626;DHT22;806;48.770;9.156;2022-08-19T04:33:09;21.40;99.90
1626;DHT22;806;48.770;9.156;2022-08-19T04:35:38;21.40;99.90
1626;DHT22;806;48.770;9.156;2022-08-19T04:38:06;21.40;99.90
1626;DHT22;806;48.770;9.156;2022-08-19T04:40:33;21.40;93.80
1626;DHT22;806;48.770;9.156;2022-08-19T04:43:20;21.40;99.90
1626;DHT22;806;48.770;9.156;2022-08-19T04:45:49;21.40;99.90
1626;DHT22;806;48.770;9.156;2022-08-19T04:48:16;21.30;99.90
1626;DHT22;806;48.770;9.156;2022-08-19T04:50:52;21.20;1.00
1626;DHT22;806;48.770;9.156;2022-08-19T04:53:23;21.30;1.00
1626;DHT22;806;48.770;9.156;2022-08-19T04:55:50;21.40;99.90
1626;DHT22;806;48.770;9.156;2022-08-19T04:58:18;21.30;1.00
1626;DHT22;806;48.770;9.156;2022-08-19T05:00:45;21.30;1.00
1626;DHT22;806;48.770;9.156;2022-08-19T05:03:13;21.30;1.00
1626;DHT22;806;48.770;9.156;2022-08-19T05:05:43;21.40;1.00
1626;DHT22;806;48.770;9.156;2022-08-19T05:08:11;21.60;47.40
1626;DHT22;806;48.770;9.156;2022-08-19T05:10:38;21.30;1.00
1626;DHT22;806;48.770;9.156;2022-08-19T05:13:06;21.40;1.00
1626;DHT22;806;48.770;9.156;2022-08-19T05:15:36;21.40;1.00
1626;DHT22;806;48.770;9.156;2022-08-19T05:18:03;21.60;92.70
1626;DHT22;806;48.770;9.156;2022-08-19T05:20:49;21.40;99.90
1626;DHT22;806;48.770;9.156;2022-08-19T05:23:33;21.40;99.90
1626;DHT22;806;48.770;9.156;2022-08-19T05:26:00;21.50;99.90
1626;DHT22;806;48.770;9.156;2022-08-19T05:28:27;21.60;99.90
1626;DHT22;806;48.770;9.156;2022-08-19T05:30:54;21.60;99.90
1626;DHT22;806;48.770;9.156;2022-08-19T05:33:21;21.60;31.70
1626;DHT22;806;48.770;9.156;2022-08-19T05:35:51;21.40;1.00
1626;DHT22;806;48.770;9.156;2022-08-19T05:38:18;21.50;99.90
1626;DHT22;806;48.770;9.156;2022-08-19T05:40:45;21.50;99.90
1626;DHT22;806;48.770;9.156;2022-08-19T05:43:14;21.50;99.90
1626;DHT22;806;48.770;9.156;2022-08-19T05:45:43;21.50;99.90
1626;DHT22;806;48.770;9.156;2022-08-19T05:48:11;21.40;99.90
1626;DHT22;806;48.770;9.156;2022-08-19T05:50:38;21.40;1.00
1626;DHT22;806;48.770;9.156;2022-08-19T05:53:07;21.40;99.90
1626;DHT22;806;48.770;9.156;2022-08-19T05:55:35;21.40;1.00
1626;DHT22;806;48.770;9.156;2022-08-19T05:58:03;21.50;99.90
1626;DHT22;806;48.770;9.156;2022-08-19T06:00:33;21.50;99.90
1626;DHT22;806;48.770;9.156;2022-08-19T06:03:00;21.60;69.10
1626;DHT22;806;48.770;9.156;2022-08-19T06:05:28;21.60;1.00
1626;DHT22;806;48.770;9.156;2022-08-19T06:07:56;21.60;1.00
1626;DHT22;806;48.770;9.156;2022-08-19T06:10:25;21.60;1.00
1626;DHT22;806;48.770;9.156;2022-08-19T06:12:53;21.70;1.00
1626;DHT22;806;48.770;9.156;2022-08-19T06:15:21;21.40;99.90
1626;DHT22;806;48.770;9.156;2022-08-19T06:17:51;21.30;1.00
1626;DHT22;806;48.770;9.156;2022-08-19T06:20:18;21.30;1.00
1626;DHT22;806;48.770;9.156;2022-08-19T06:22:47;21.40;1.00
1626;DHT22;806;48.770;9.156;2022-08-19T06:25:15;21.50;1.00
1626;DHT22;806;48.770;9.156;2022-08-19T06:27:44;21.70;99.90
1626;DHT22;806;48.770;9.156;2022-08-19T06:30:12;21.70;1.00
1626;DHT22;806;48.770;9.156;2022-08-19T06:32:39;21.60;1.00
1626;DHT22;806;48.770;9.156;2022-08-19T06:35:07;21.60;99.90
1626;DHT22;806;48.770;9.156;2022-08-19T06:37:34;21.70;99.90
1626;DHT22;806;48.770;9.156;2022-08-19T06:40:03;21.80;1.00
1626;DHT22;806;48.770;9.156;2022-08-19T06:42:31;21.90;1.00
1626;DHT22;806;48.770;9.156;2022-08-19T06:45:00;21.90;1.00
1626;DHT22;806;48.770;9.156;2022-08-19T06:47:28;21.80;1.00
1626;DHT22;806;48.770;9.156;2022-08-19T06:49:57;21.80;68.70
1626;DHT22;806;48.770;9.156;2022-08-19T06:52:27;21.80;99.90
1626;DHT22;806;48.770;9.156;2022-08-19T06:54:54;21.70;1.00
1626;DHT22;806;48.770;9.156;2022-08-19T06:57:23;21.70;1.00
1626;DHT22;806;48.770;9.156;2022-08-19T06:59:50;21.70;99.90
1626;DHT22;806;48.770;9.156;2022-08-19T07:02:19;21.70;99.90
1626;DHT22;806;48.770;9.156;2022-08-19T07:04:46;21.50;99.90
1626;DHT22;806;48.770;9.156;2022-08-19T07:07:14;21.50;1.00
1626;DHT22;806;48.770;9.156;2022-08-19T07:09:42;21.60;1.00
1626;DHT22;806;48.770;9.156;2022-08-19T07:12:12;21.40;1.00
1626;DHT22;806;48.770;9.156;2022-08-19T07:14:41;21.50;1.00
1626;DHT22;806;48.770;9.156;2022-08-19T07:17:10;21.60;99.90
1626;DHT22;806;48.770;9.156;2022-08-19T07:19:39;21.60;99.90
1626;DHT22;806;48.770;9.156;2022-08-19T07:22:08;21.50;1.00
1626;DHT22;806;48.770;9.156;2022-08-19T07:24:36;21.60;1.00
1626;DHT22;806;48.770;9.156;2022-08-19T07:27:05;21.60;99.90
1626;DHT22;806;48.770;9.156;2022-08-19T07:29:34;21.60;99.90
1626;DHT22;806;48.770;9.156;2022-08-19T07:32:03;21.40;1.00
1626;DHT22;806;48.770;9.156;2022-08-19T07:34:30;21.30;1.00
1626;DHT22;806;48.770;9.156;2022-08-19T07:37:04;21.30;1.00
1626;DHT22;806;48.770;9.156;2022-08-19T07:39:33;21.10;1.00
1626;DHT22;806;48.770;9.156;2022-08-19T07:42:05;21.20;1.00
1626;DHT22;806;48.770;9.156;2022-08-19T07:44:33;21.30;1.00
1626;DHT22;806;48.770;9.156;2022-08-19T07:47:01;21.40;99.90
1626;DHT22;806;48.770;9.156;2022-08-19T07:49:28;21.40;99.90
1626;DHT22;806;48.770;9.156;2022-08-19T07:51:57;21.50;99.90
1626;DHT22;806;48.770;9.156;2022-08-19T07:54:31;21.60;99.90
1626;DHT22;806;48.770;9.156;2022-08-19T07:56:59;21.50;99.90
1626;DHT22;806;48.770;9.156;2022-08-19T07:59:27;21.60;99.90
1626;DHT22;806;48.770;9.156;2022-08-19T08:01:55;21.70;1.00
1626;DHT22;806;48.770;9.156;2022-08-19T08:04:22;21.60;40.50
1626;DHT22;806;48.770;9.156;2022-08-19T08:07:07;21.50;99.90
1626;DHT22;806;48.770;9.156;2022-08-19T08:09:53;21.50;77.20
1626;DHT22;806;48.770;9.156;2022-08-19T08:12:23;21.60;8.40
1626;DHT22;806;48.770;9.156;2022-08-19T08:14:53;21.70;1.00
1626;DHT22;806;48.770;9.156;2022-08-19T08:17:22;21.80;1.00
1626;DHT22;806;48.770;9.156;2022-08-19T08:19:50;21.80;99.90
1626;DHT22;806;48.770;9.156;2022-08-19T08:22:18;21.70;1.00
1626;DHT22;806;48.770;9.156;2022-08-19T08:25:04;21.60;1.00
1626;DHT22;806;48.770;9.156;2022-08-19T08:27:35;21.60;1.00
1626;DHT22;806;48.770;9.156;2022-08-19T08:30:08;21.70;1.00
1626;DHT22;806;48.770;9.156;2022-08-19T08:32:36;21.70;1.00
1626;DHT22;806;48.770;9.156;2022-08-19T08:35:03;21.70;1.00
1626;DHT22;806;48.770;9.156;2022-08-19T08:37:30;21.70;1.00
1626;DHT22;806;48.770;9.156;2022-08-19T08:39:57;21.70;1.00
1626;DHT22;806;48.770;9.156;2022-08-19T08:42:31;21.70;1.00
1626;DHT22;806;48.770;9.156;2022-08-19T08:45:02;21.80;1.00
1626;DHT22;806;48.770;9.156;2022-08-19T08:47:34;21.80;1.00
1626;DHT22;806;48.770;9.156;2022-08-19T08:50:05;21.90;1.00
1626;DHT22;806;48.770;9.156;2022-08-19T08:52:35;21.80;1.00
1626;DHT22;806;48.770;9.156;2022-08-19T08:55:07;21.80;1.00
1626;DHT22;806;48.770;9.156;2022-08-19T08:57:39;21.90;99.90
1626;DHT22;806;48.770;9.156;2022-08-19T09:00:10;21.80;1.00
1626;DHT22;806;48.770;9.156;2022-08-19T09:02:38;21.90;1.00
1626;DHT22;806;48.770;9.156;2022-08-19T09:05:07;22.00;99.90
1626;DHT22;806;48.770;9.156;2022-08-19T09:07:42;21.90;99.90
1626;DHT22;806;48.770;9.156;2022-08-19T09:10:17;22.00;99.90
1626;DHT22;806;48.770;9.156;2022-08-19T09:12:55;21.90;99.90
1626;DHT22;806;48.770;9.156;2022-08-19T09:15:29;21.90;99.90
1626;DHT22;806;48.770;9.156;2022-08-19T09:18:00;21.90;99.90
1626;DHT22;806;48.770;9.156;2022-08-19T09:20:29;21.90;99.90
1626;DHT22;806;48.770;9.156;2022-08-19T09:22:56;21.90;1.00
1626;DHT22;806;48.770;9.156;2022-08-19T09:25:23;22.00;1.00
1626;DHT22;806;48.770;9.156;2022-08-19T09:27:53;22.10;99.90
1626;DHT22;806;48.770;9.156;2022-08-19T09:30:24;22.10;99.90
1626;DHT22;806;48.770;9.156;2022-08-19T09:32:54;22.10;99.90
1626;DHT22;806;48.770;9.156;2022-08-19T09:35:24;22.10;99.90
1626;DHT22;806;48.770;9.156;2022-08-19T09:37:52;22.10;99.90
1626;DHT22;806;48.770;9.156;2022-08-19T09:40:20;22.10;99.90
1626;DHT22;806;48.770;9.156;2022-08-19T09:42:47;22.30;1.00
1626;DHT22;806;48.770;9.156;2022-08-19T09:45:18;22.30;1.00
1626;DHT22;806;48.770;9.156;2022-08-19T09:47:47;22.30;1.00
1626;DHT22;806;48.770;9.156;2022-08-19T09:50:14;22.20;1.00
1626;DHT22;806;48.770;9.156;2022-08-19T09:52:42;22.20;1.00
1626;DHT22;806;48.770;9.156;2022-08-19T09:55:10;22.30;1.00
1626;DHT22;806;48.770;9.156;2022-08-19T09:57:38;22.40;1.00
1626;DHT22;806;48.770;9.156;2022-08-19T10:00:06;22.40;1.00
1626;DHT22;806;48.770;9.156;2022-08-19T10:02:36;22.50;99.90
1626;DHT22;806;48.770;9.156;2022-08-19T10:05:03;22.50;99.90
1626;DHT22;806;48.770;9.156;2022-08-19T10:07:48;22.50;66.60
1626;DHT22;806;48.770;9.156;2022-08-19T10:10:16;22.60;1.00
1626;DHT22;806;48.770;9.156;2022-08-19T10:12:43;22.60;1.00
1626;DHT22;806;48.770;9.156;2022-08-19T10:15:12;22.50;1.00
1626;DHT22;806;48.770;9.156;2022-08-19T10:17:41;22.50;7.40
1626;DHT22;806;48.770;9.156;2022-08-19T10:20:09;22.50;1.00
1626;DHT22;806;48.770;9.156;2022-08-19T10:22:36;22.50;1.00
1626;DHT22;806;48.770;9.156;2022-08-19T10:25:05;22.50;1.00
1626;DHT22;806;48.770;9.156;2022-08-19T10:27:34;22.60;99.90
1626;DHT22;806;48.770;9.156;2022-08-19T10:30:03;22.70;1.00
1626;DHT22;806;48.770;9.156;2022-08-19T10:32:30;22.80;1.00
1626;DHT22;806;48.770;9.156;2022-08-19T10:34:58;22.70;1.00
1626;DHT22;806;48.770;9.156;2022-08-19T10:37:26;22.70;1.00
1626;DHT22;806;48.770;9.156;2022-08-19T10:39:53;22.80;99.90
1626;DHT22;806;48.770;9.156;2022-08-19T10:42:20;22.90;99.90
1626;DHT22;806;48.770;9.156;2022-08-19T10:44:47;23.00;53.90
1626;DHT22;806;48.770;9.156;2022-08-19T10:47:14;23.00;1.00
1626;DHT22;806;48.770;9.156;2022-08-19T10:49:41;23.10;1.00
1626;DHT22;806;48.770;9.156;2022-08-19T10:52:27;23.30;99.90
1626;DHT22;806;48.770;9.156;2022-08-19T10:55:00;23.40;1.00
1626;DHT22;806;48.770;9.156;2022-08-19T10:57:45;23.50;1.00
1626;DHT22;806;48.770;9.156;2022-08-19T11:00:12;23.50;99.90
1626;DHT22;806;48.770;9.156;2022-08-19T11:02:40;23.40;99.90
1626;DHT22;806;48.770;9.156;2022-08-19T11:05:08;23.50;99.90
1626;DHT22;806;48.770;9.156;2022-08-19T11:07:38;23.50;99.90
1626;DHT22;806;48.770;9.156;2022-08-19T11:10:06;23.30;99.90
1626;DHT22;806;48.770;9.156;2022-08-19T11:12:36;23.40;99.90
1626;DHT22;806;48.770;9.156;2022-08-19T11:15:05;23.40;99.90
1626;DHT22;806;48.770;9.156;2022-08-19T11:17:34;23.60;48.00
1626;DHT22;806;48.770;9.156;2022-08-19T11:20:06;23.70;58.90
1626;DHT22;806;48.770;9.156;2022-08-19T11:22:34;23.70;1.00
1626;DHT22;806;48.770;9.156;2022-08-19T11:25:03;23.80;1.00
1626;DHT22;806;48.770;9.156;2022-08-19T11:27:30;23.70;1.00
1626;DHT22;806;48.770;9.156;2022-08-19T11:29:57;23.80;1.00
1626;DHT22;806;48.770;9.156;2022-08-19T11:32:25;23.90;1.00
1626;DHT22;806;48.770;9.156;2022-08-19T11:34:52;23.90;1.00
1626;DHT22;806;48.770;9.156;2022-08-19T11:37:19;24.00;1.00
1626;DHT22;806;48.770;9.156;2022-08-19T11:39:46;24.00;1.00
1626;DHT22;806;48.770;9.156;2022-08-19T11:42:15;24.10;1.00
1626;DHT22;806;48.770;9.156;2022-08-19T11:45:01;24.10;1.00
1626;DHT22;806;48.770;9.156;2022-08-19T11:47:29;24.20;1.00
1626;DHT22;806;48.770;9.156;2022-08-19T11:49:56;24.30;99.90
1626;DHT22;806;48.770;9.156;2022-08-19T11:52:23;24.30;99.90
1626;DHT22;806;48.770;9.156;2022-08-19T11:54:50;24.30;99.90
1626;DHT22;806;48.770;9.156;2022-08-19T11:57:19;24.30;99.90
1626;DHT22;806;48.770;9.156;2022-08-19T11:59:50;24.40;99.90
1626;DHT22;806;48.770;9.156;2022-08-19T12:02:17;24.30;99.90
1626;DHT22;806;48.770;9.156;2022-08-19T12:04:44;24.30;99.90
1626;DHT22;806;48.770;9.156;2022-08-19T12:07:12;24.30;99.90
1626;DHT22;806;48.770;9.156;2022-08-19T12:09:40;24.40;99.90
1626;DHT22;806;48.770;9.156;2022-08-19T12:12:08;24.40;99.90
1626;DHT22;806;48.770;9.156;2022-08-19T12:14:39;24.40;99.90
1626;DHT22;806;48.770;9.156;2022-08-19T12:17:06;24.50;99.90
1626;DHT22;806;48.770;9.156;2022-08-19T12:19:36;24.40;99.90
1626;DHT22;806;48.770;9.156;2022-08-19T12:22:03;24.40;99.90
1626;DHT22;806;48.770;9.156;2022-08-19T12:24:32;24.40;99.90
1626;DHT22;806;48.770;9.156;2022-08-19T12:26:59;24.40;99.90
1626;DHT22;806;48.770;9.156;2022-08-19T12:29:27;24.50;99.90
1626;DHT22;806;48.770;9.156;2022-08-19T12:31:56;24.50;99.90
1626;DHT22;806;48.770;9.156;2022-08-19T12:34:27;24.50;99.90
1626;DHT22;806;48.770;9.156;2022-08-19T12:36:56;24.50;99.90
1626;DHT22;806;48.770;9.156;2022-08-19T12:39:23;24.40;99.90
1626;DHT22;806;48.770;9.156;2022-08-19T12:41:51;24.40;99.90
1626;DHT22;806;48.770;9.156;2022-08-19T12:44:18;24.40;99.90
1626;DHT22;806;48.770;9.156;2022-08-19T12:46:47;24.20;99.90
1626;DHT22;806;48.770;9.156;2022-08-19T12:49:15;24.10;1.00
1626;DHT22;806;48.770;9.156;2022-08-19T12:51:42;24.10;1.00
1626;DHT22;806;48.770;9.156;2022-08-19T12:54:09;24.00;1.00
1626;DHT22;806;48.770;9.156;2022-08-19T12:56:37;24.10;1.00
1626;DHT22;806;48.770;9.156;2022-08-19T12:59:04;24.00;99.90
1626;DHT22;806;48.770;9.156;2022-08-19T13:01:33;24.00;99.90
1626;DHT22;806;48.770;9.156;2022-08-19T13:04:00;24.00;99.90
1626;DHT22;806;48.770;9.156;2022-08-19T13:06:28;24.00;53.10
1626;DHT22;806;48.770;9.156;2022-08-19T13:08:55;24.00;13.70
1626;DHT22;806;48.770;9.156;2022-08-19T13:11:23;24.00;15.70
1626;DHT22;806;48.770;9.156;2022-08-19T13:13:51;24.00;28.10
1626;DHT22;806;48.770;9.156;2022-08-19T13:16:21;23.90;99.90
1626;DHT22;806;48.770;9.156;2022-08-19T13:18:49;23.80;1.00
1626;DHT22;806;48.770;9.156;2022-08-19T13:21:17;23.70;1.00
1626;DHT22;806;48.770;9.156;2022-08-19T13:23:47;23.70;1.00
1626;DHT22;806;48.770;9.156;2022-08-19T13:26:14;23.50;1.00
1626;DHT22;806;48.770;9.156;2022-08-19T13:28:43;23.50;1.00
1626;DHT22;806;48.770;9.156;2022-08-19T13:31:29;23.40;51.80
1626;DHT22;806;48.770;9.156;2022-08-19T13:34:15;23.20;1.00
1626;DHT22;806;48.770;9.156;2022-08-19T13:36:43;23.10;1.00
1626;DHT22;806;48.770;9.156;2022-08-19T13:39:12;23.00;1.00
1626;DHT22;806;48.770;9.156;2022-08-19T13:41:45;22.80;1.00
1626;DHT22;806;48.770;9.156;2022-08-19T13:44:14;22.80;1.00
1626;DHT22;806;48.770;9.156;2022-08-19T13:46:43;22.60;1.00
1626;DHT22;806;48.770;9.156;2022-08-19T13:49:11;22.40;1.00
1626;DHT22;806;48.770;9.156;2022-08-19T13:51:40;22.10;14.70
1626;DHT22;806;48.770;9.156;2022-08-19T13:54:08;22.10;24.30
1626;DHT22;806;48.770;9.156;2022-08-19T13:56:40;22.00;28.10
1626;DHT22;806;48.770;9.156;2022-08-19T13:59:07;21.90;37.20
1626;DHT22;806;48.770;9.156;2022-08-19T14:01:34;21.90;46.50
1626;DHT22;806;48.770;9.156;2022-08-19T14:04:02;21.80;51.60
1626;DHT22;806;48.770;9.156;2022-08-19T14:06:29;21.80;63.20
1626;DHT22;806;48.770;9.156;2022-08-19T14:08:58;21.80;64.60
1626;DHT22;806;48.770;9.156;2022-08-19T14:11:27;21.80;70.70
1626;DHT22;806;48.770;9.156;2022-08-19T14:13:56;21.90;63.20
1626;DHT22;806;48.770;9.156;2022-08-19T14:16:24;21.80;63.50
1626;DHT22;806;48.770;9.156;2022-08-19T14:18:55;21.80;47.30
1626;DHT22;806;48.770;9.156;2022-08-19T14:21:23;21.90;47.70
1626;DHT22;806;48.770;9.156;2022-08-19T14:23:52;22.00;40.50
1626;DHT22;806;48.770;9.156;2022-08-19T14:26:20;22.10;37.40
1626;DHT22;806;48.770;9.156;2022-08-19T14:28:48;22.10;26.40
1626;DHT22;806;48.770;9.156;2022-08-19T14:31:17;22.10;31.30
1626;DHT22;806;48.770;9.156;2022-08-19T14:33:46;22.10;29.10
1626;DHT22;806;48.770;9.156;2022-08-19T14:36:13;22.00;19.30
1626;DHT22;806;48.770;9.156;2022-08-19T14:38:41;22.10;12.50
1626;DHT22;806;48.770;9.156;2022-08-19T14:41:11;22.20;1.00
1626;DHT22;806;48.770;9.156;2022-08-19T14:43:39;22.30;1.00
1626;DHT22;806;48.770;9.156;2022-08-19T14:46:07;22.50;1.00
1626;DHT22;806;48.770;9.156;2022-08-19T14:48:37;22.70;1.00
1626;DHT22;806;48.770;9.156;2022-08-19T14:51:04;22.60;1.00
1626;DHT22;806;48.770;9.156;2022-08-19T14:53:32;22.60;1.00
1626;DHT22;806;48.770;9.156;2022-08-19T14:56:00;22.60;1.00
1626;DHT22;806;48.770;9.156;2022-08-19T14:58:27;22.60;1.00
1626;DHT22;806;48.770;9.156;2022-08-19T15:00:54;22.60;1.00
1626;DHT22;806;48.770;9.156;2022-08-19T15:03:21;22.60;1.00
1626;DHT22;806;48.770;9.156;2022-08-19T15:05:49;22.60;1.00
1626;DHT22;806;48.770;9.156;2022-08-19T15:08:16;22.60;1.00
1626;DHT22;806;48.770;9.156;2022-08-19T15:10:43;22.70;1.00
1626;DHT22;806;48.770;9.156;2022-08-19T15:13:11;22.80;1.00
1626;DHT22;806;48.770;9.156;2022-08-19T15:15:38;22.80;1.00
1626;DHT22;806;48.770;9.156;2022-08-19T15:18:05;22.80;1.00
1626;DHT22;806;48.770;9.156;2022-08-19T15:20:32;22.90;1.00
1626;DHT22;806;48.770;9.156;2022-08-19T15:23:06;23.00;1.00
1626;DHT22;806;48.770;9.156;2022-08-19T15:25:34;23.10;1.00
1626;DHT22;806;48.770;9.156;2022-08-19T15:28:01;23.10;1.00
1626;DHT22;806;48.770;9.156;2022-08-19T15:30:29;23.10;1.00
1626;DHT22;806;48.770;9.156;2022-08-19T15:32:58;23.20;1.00
1626;DHT22;806;48.770;9.156;2022-08-19T15:35:25;23.20;1.00
1626;DHT22;806;48.770;9.156;2022-08-19T15:37:55;23.20;1.00
1626;DHT22;806;48.770;9.156;2022-08-19T15:40:25;23.20;1.00
1626;DHT22;806;48.770;9.156;2022-08-19T15:42:56;23.20;1.00
1626;DHT22;806;48.770;9.156;2022-08-19T15:45:23;23.30;1.00
1626;DHT22;806;48.770;9.156;2022-08-19T15:47:57;23.40;99.90
1626;DHT22;806;48.770;9.156;2022-08-19T15:50:25;23.40;1.00
1626;DHT22;806;48.770;9.156;2022-08-19T15:52:58;23.50;1.00
1626;DHT22;806;48.770;9.156;2022-08-19T15:55:30;23.60;1.00
1626;DHT22;806;48.770;9.156;2022-08-19T15:57:58;23.70;99.90
1626;DHT22;806;48.770;9.156;2022-08-19T16:00:42;23.70;99.90
1626;DHT22;806;48.770;9.156;2022-08-19T16:03:27;23.70;99.90
1626;DHT22;806;48.770;9.156;2022-08-19T16:06:11;23.70;99.90
1626;DHT22;806;48.770;9.156;2022-08-19T16:08:57;23.80;99.90
1626;DHT22;806;48.770;9.156;2022-08-19T16:11:30;23.80;99.90
1626;DHT22;806;48.770;9.156;2022-08-19T16:13:58;23.90;99.90
1626;DHT22;806;48.770;9.156;2022-08-19T16:16:31;23.90;99.90
1626;DHT22;806;48.770;9.156;2022-08-19T16:19:00;23.90;99.90
1626;DHT22;806;48.770;9.156;2022-08-19T16:21:29;23.90;99.90
1626;DHT22;806;48.770;9.156;2022-08-19T16:24:06;23.80;99.90
1626;DHT22;806;48.770;9.156;2022-08-19T16:26:36;23.80;99.90
1626;DHT22;806;48.770;9.156;2022-08-19T16:29:04;23.80;99.90
1626;DHT22;806;48.770;9.156;2022-08-19T16:31:32;23.90;1.00
1626;DHT22;806;48.770;9.156;2022-08-19T16:34:00;24.00;1.00
1626;DHT22;806;48.770;9.156;2022-08-19T16:36:26;24.00;99.90
1626;DHT22;806;48.770;9.156;2022-08-19T16:38:55;24.10;99.90